Terminal Aerodrome Forecast
Issued by NWS

Home | Current Version | Previous Version | Text Only | Print | Product List | Glossary On
Versions: 1 2 3 4 5 6 7 8 9 10 11 12 13 14 15 16 17
000
FTUS46 KLOX 202300
TAFSBA
TAF
KSBA 202336Z 2100/2124 27008KT P6SM BKN200
     FM210300 33008KT P6SM BKN200 WS010/34030KT
     FM210600 36008KT P6SM BKN200 WS010/01030KT
     FM211300 VRB03KT P6SM SCT200
     FM211800 17006KT P6SM SKC=

USA.gov is the U.S. government's official web portal to all federal, state and local government web resources and services.